createdAt,value
2022-08-05T00:01:27.996Z,3.50
2022-08-05T00:04:14.566Z,3.20
2022-08-05T00:06:59.945Z,3.00
2022-08-05T00:09:45.511Z,3.03
2022-08-05T00:12:31.060Z,3.27
2022-08-05T00:15:56.348Z,2.90
2022-08-05T00:18:22.613Z,3.50
2022-08-05T00:21:08.613Z,3.23
2022-08-05T00:24:09.860Z,3.10
2022-08-05T00:26:56.743Z,3.10
2022-08-05T00:29:44.551Z,3.40
2022-08-05T00:32:29.658Z,3.40
2022-08-05T00:35:14.954Z,3.40
2022-08-05T00:38:05.757Z,3.40
2022-08-05T00:40:56.699Z,3.20
2022-08-05T00:43:49.971Z,3.03
2022-08-05T00:49:32.596Z,2.88
2022-08-05T00:52:18.834Z,2.97
2022-08-05T00:55:14.823Z,3.30
2022-08-05T00:58:00.915Z,3.30
2022-08-05T01:00:47.884Z,3.30
2022-08-05T01:03:36.002Z,3.10
2022-08-05T01:06:21.526Z,3.07
2022-08-05T01:09:20.015Z,2.80
2022-08-05T01:12:18.846Z,3.10
2022-08-05T01:15:35.127Z,3.47
2022-08-05T01:18:23.157Z,3.20
2022-08-05T01:21:37.852Z,3.50
2022-08-05T01:24:23.829Z,3.10
2022-08-05T01:27:19.180Z,2.87
2022-08-05T01:30:05.459Z,3.57
2022-08-05T01:33:09.415Z,3.07
2022-08-05T01:35:59.421Z,3.07
2022-08-05T01:38:48.538Z,2.87
2022-08-05T01:41:37.662Z,3.37
2022-08-05T01:44:24.686Z,2.93
2022-08-05T01:47:21.466Z,3.30
2022-08-05T01:50:15.157Z,3.40
2022-08-05T01:53:04.379Z,3.43
2022-08-05T01:55:50.795Z,3.37
2022-08-05T01:58:45.006Z,3.20
2022-08-05T02:01:40.236Z,2.77
2022-08-05T02:04:28.890Z,3.00
2022-08-05T02:07:22.035Z,3.00
2022-08-05T02:10:08.468Z,2.92
2022-08-05T02:12:58.351Z,3.30
2022-08-05T02:15:51.870Z,3.43
2022-08-05T02:18:44.741Z,3.40
2022-08-05T02:21:38.000Z,3.10
2022-08-05T02:24:37.556Z,3.30
2022-08-05T02:27:29.860Z,3.23
2022-08-05T02:30:51.502Z,3.27
2022-08-05T02:33:42.059Z,3.50
2022-08-05T02:36:31.663Z,3.37
2022-08-05T02:39:21.710Z,3.50
2022-08-05T02:42:09.169Z,3.40
2022-08-05T02:44:55.951Z,3.50
2022-08-05T02:48:07.058Z,3.30
2022-08-05T02:50:51.546Z,3.20
2022-08-05T02:53:39.387Z,3.10
2022-08-05T02:56:27.520Z,3.07
2022-08-05T02:59:15.760Z,3.47
2022-08-05T03:02:04.784Z,3.47
2022-08-05T03:04:53.480Z,3.40
2022-08-05T03:08:06.717Z,3.33
2022-08-05T03:11:41.270Z,3.30
2022-08-05T03:14:03.289Z,3.20
2022-08-05T03:16:49.278Z,3.63
2022-08-05T03:19:38.479Z,3.20
2022-08-05T03:22:31.864Z,3.20
2022-08-05T03:25:32.989Z,3.37
2022-08-05T03:28:26.681Z,3.27
2022-08-05T03:31:18.257Z,3.27
2022-08-05T03:34:18.107Z,3.70
2022-08-05T03:37:04.659Z,3.43
2022-08-05T03:39:59.113Z,3.40
2022-08-05T03:42:52.075Z,3.40
2022-08-05T03:45:57.151Z,3.13
2022-08-05T03:48:45.335Z,3.07
2022-08-05T03:52:38.839Z,3.20
2022-08-05T03:56:05.995Z,3.60
2022-08-05T03:58:12.239Z,3.42
2022-08-05T04:01:01.891Z,3.60
2022-08-05T04:04:08.832Z,3.53
2022-08-05T04:06:56.056Z,3.27
2022-08-05T04:09:53.788Z,2.83
2022-08-05T04:15:24.372Z,3.40
2022-08-05T04:18:12.746Z,3.50
2022-08-05T04:21:11.102Z,3.37
2022-08-05T04:24:06.776Z,3.37
2022-08-05T04:26:54.471Z,3.77
2022-08-05T04:29:43.658Z,3.50
2022-08-05T04:32:31.189Z,3.67
2022-08-05T04:35:19.497Z,3.60
2022-08-05T04:38:06.633Z,3.70
2022-08-05T04:40:52.625Z,3.63
2022-08-05T04:43:40.552Z,3.70
2022-08-05T04:46:33.565Z,3.10
2022-08-05T04:49:24.668Z,3.43
2022-08-05T04:52:23.631Z,3.60
2022-08-05T04:55:14.675Z,3.70
2022-08-05T04:58:00.851Z,3.50
2022-08-05T05:00:46.725Z,3.23
2022-08-05T05:03:42.271Z,3.40
2022-08-05T05:06:40.752Z,3.47
2022-08-05T05:09:30.679Z,3.60
2022-08-05T05:12:16.954Z,4.07
2022-08-05T05:15:03.554Z,4.10
2022-08-05T05:17:55.587Z,3.97
2022-08-05T05:20:46.863Z,4.03
2022-08-05T05:23:39.206Z,4.30
2022-08-05T05:26:42.539Z,3.83
2022-08-05T05:30:04.516Z,3.70
2022-08-05T05:32:37.786Z,3.50
2022-08-05T05:35:26.525Z,3.57
2022-08-05T05:38:13.136Z,3.63
2022-08-05T05:40:59.717Z,3.83
2022-08-05T05:43:56.791Z,3.23
2022-08-05T05:46:45.891Z,3.63
2022-08-05T05:49:33.485Z,3.83
2022-08-05T05:52:26.355Z,3.20
2022-08-05T05:55:18.137Z,3.10
2022-08-05T05:58:04.387Z,3.63
2022-08-05T06:00:49.650Z,3.40
2022-08-05T06:03:54.094Z,3.13
2022-08-05T06:06:47.774Z,3.03
2022-08-05T06:10:00.535Z,3.40
2022-08-05T06:12:42.350Z,3.30
2022-08-05T06:16:29.066Z,3.30
2022-08-05T06:18:33.361Z,3.03
2022-08-05T06:21:24.580Z,3.30
2022-08-05T06:24:25.775Z,3.63
2022-08-05T06:28:09.469Z,3.30
2022-08-05T06:30:21.305Z,3.47
2022-08-05T06:33:10.676Z,3.50
2022-08-05T06:36:07.160Z,3.70
2022-08-05T06:38:55.233Z,3.23
2022-08-05T06:41:40.619Z,3.50
2022-08-05T06:44:27.586Z,3.70
2022-08-05T06:47:29.962Z,3.70
2022-08-05T06:50:18.665Z,3.50
2022-08-05T06:53:11.630Z,3.80
2022-08-05T06:56:25.970Z,4.32
2022-08-05T06:59:14.484Z,3.43
2022-08-05T07:02:00.691Z,3.70
2022-08-05T07:04:46.260Z,3.80
2022-08-05T07:07:42.999Z,4.27
2022-08-05T07:10:30.516Z,3.90
2022-08-05T07:13:57.089Z,4.03
2022-08-05T07:17:58.779Z,4.53
2022-08-05T07:23:02.125Z,4.10
2022-08-05T07:25:54.785Z,4.67
2022-08-05T07:28:42.255Z,4.57
2022-08-05T07:31:41.015Z,4.70
2022-08-05T07:34:32.929Z,5.30
2022-08-05T07:37:18.278Z,4.57
2022-08-05T07:40:32.251Z,4.83
2022-08-05T07:43:20.292Z,4.90
2022-08-05T07:46:06.384Z,5.20
2022-08-05T07:49:10.149Z,5.20
2022-08-05T07:51:55.489Z,5.20
2022-08-05T07:54:49.155Z,5.40
2022-08-05T07:57:56.248Z,5.00
2022-08-05T08:00:41.578Z,4.70
2022-08-05T08:03:44.933Z,4.93
2022-08-05T08:06:31.071Z,4.75
2022-08-05T08:09:16.295Z,4.83
2022-08-05T08:12:12.510Z,4.90
2022-08-05T08:15:15.552Z,5.00
2022-08-05T08:18:02.199Z,4.80
2022-08-05T08:21:02.225Z,4.80
2022-08-05T08:24:02.638Z,4.80
2022-08-05T08:26:50.893Z,4.37
2022-08-05T08:30:04.058Z,4.80
2022-08-05T08:32:43.873Z,4.50
2022-08-05T08:35:29.169Z,4.40
2022-08-05T08:38:35.166Z,4.50
2022-08-05T08:41:26.317Z,4.65
2022-08-05T08:45:25.162Z,4.63
2022-08-05T08:48:06.847Z,4.87
2022-08-05T08:51:03.069Z,4.53
2022-08-05T08:53:50.192Z,4.53
2022-08-05T08:56:47.825Z,4.50
2022-08-05T08:59:35.802Z,4.50
2022-08-05T09:02:21.975Z,4.43
2022-08-05T09:05:17.616Z,4.53
2022-08-05T09:08:03.448Z,4.23
2022-08-05T09:10:51.255Z,4.30
2022-08-05T09:13:41.529Z,4.40
2022-08-05T09:16:42.637Z,4.30
2022-08-05T09:19:36.401Z,4.47
2022-08-05T09:22:31.643Z,4.60
2022-08-05T09:25:24.303Z,4.40
2022-08-05T09:28:32.404Z,3.93
2022-08-05T09:32:38.968Z,4.13
2022-08-05T09:34:26.132Z,4.40
2022-08-05T09:37:18.650Z,4.13
2022-08-05T09:40:32.147Z,3.90
2022-08-05T09:43:40.723Z,4.30
2022-08-05T09:46:28.878Z,4.50
2022-08-05T09:49:23.489Z,3.93
2022-08-05T09:52:31.763Z,4.30
2022-08-05T09:55:57.428Z,4.30
2022-08-05T09:58:22.508Z,4.13
2022-08-05T10:01:15.755Z,4.73
2022-08-05T10:04:18.445Z,4.03
2022-08-05T10:07:14.152Z,4.20
2022-08-05T10:10:15.069Z,4.33
2022-08-05T10:13:02.720Z,4.27
2022-08-05T10:15:58.206Z,4.17
2022-08-05T10:18:47.957Z,4.47
2022-08-05T10:21:35.242Z,4.93
2022-08-05T10:24:26.978Z,4.20
2022-08-05T10:27:14.962Z,4.47
2022-08-05T10:30:07.209Z,4.33
2022-08-05T10:33:14.524Z,4.50
2022-08-05T10:36:05.701Z,4.68
2022-08-05T10:38:57.195Z,4.27
2022-08-05T10:42:01.026Z,4.40
2022-08-05T10:47:35.995Z,4.40
2022-08-05T10:50:36.524Z,5.45
2022-08-05T10:53:55.857Z,4.77
2022-08-05T10:57:01.795Z,4.70
2022-08-05T11:00:04.150Z,4.60
2022-08-05T11:03:23.012Z,5.20
2022-08-05T11:06:15.087Z,5.27
2022-08-05T11:09:24.456Z,4.70
2022-08-05T11:12:38.259Z,5.00
2022-08-05T11:16:00.430Z,5.47
2022-08-05T11:18:47.269Z,4.80
2022-08-05T11:21:48.723Z,5.00
2022-08-05T11:24:35.360Z,5.05
2022-08-05T11:27:50.914Z,4.83
2022-08-05T11:30:58.938Z,4.63
2022-08-05T11:33:51.687Z,4.57
2022-08-05T11:36:52.807Z,4.90
2022-08-05T11:40:00.634Z,5.10
2022-08-05T11:42:50.091Z,4.93
2022-08-05T11:46:14.938Z,5.27
2022-08-05T11:48:54.937Z,4.83
2022-08-05T11:51:49.527Z,4.73
2022-08-05T11:54:38.296Z,5.30
2022-08-05T11:58:08.146Z,4.57
2022-08-05T12:00:37.723Z,4.57
2022-08-05T12:03:31.506Z,4.77
2022-08-05T12:06:19.663Z,4.40
2022-08-05T12:09:05.851Z,4.70
2022-08-05T12:11:51.769Z,4.67
2022-08-05T12:14:40.246Z,4.50
2022-08-05T12:18:03.614Z,4.33
2022-08-05T12:20:41.581Z,4.43
2022-08-05T12:23:27.363Z,4.43
2022-08-05T12:26:12.974Z,4.57
2022-08-05T12:28:58.379Z,4.30
2022-08-05T12:31:57.032Z,4.07
2022-08-05T12:34:43.464Z,4.30
2022-08-05T12:37:32.129Z,4.40
2022-08-05T12:40:26.882Z,4.00
2022-08-05T12:43:21.068Z,4.33
2022-08-05T12:46:06.982Z,4.00
2022-08-05T12:49:13.517Z,4.23
2022-08-05T12:52:10.625Z,3.67
2022-08-05T12:54:59.872Z,4.43
2022-08-05T12:58:49.002Z,4.20
2022-08-05T13:02:01.735Z,3.83
2022-08-05T13:03:56.680Z,4.00
2022-08-05T13:06:51.572Z,4.30
2022-08-05T13:09:37.320Z,4.00
2022-08-05T13:12:28.357Z,4.10
2022-08-05T13:15:18.020Z,4.00
2022-08-05T13:18:09.584Z,3.90
2022-08-05T13:20:55.370Z,3.90
2022-08-05T13:23:50.751Z,3.57
2022-08-05T13:26:37.714Z,3.60
2022-08-05T13:29:37.300Z,3.50
2022-08-05T13:32:30.889Z,3.50
2022-08-05T13:35:22.160Z,4.00
2022-08-05T13:38:28.110Z,3.45
2022-08-05T13:41:17.256Z,3.70
2022-08-05T13:44:03.581Z,3.43
2022-08-05T13:47:01.928Z,3.53
2022-08-05T13:49:51.524Z,3.60
2022-08-05T13:52:37.136Z,3.87
2022-08-05T13:55:41.131Z,3.60
2022-08-05T13:58:30.760Z,3.57
2022-08-05T14:01:16.781Z,4.17
2022-08-05T14:04:20.863Z,3.40
2022-08-05T14:07:25.132Z,3.53
2022-08-05T14:10:19.254Z,3.87
2022-08-05T14:13:15.425Z,3.45
2022-08-05T14:16:05.914Z,3.57
2022-08-05T14:18:54.769Z,3.30
2022-08-05T14:22:11.446Z,3.37
2022-08-05T14:24:48.578Z,3.60
2022-08-05T14:27:36.089Z,3.50
2022-08-05T14:30:27.874Z,3.60
2022-08-05T14:33:16.300Z,3.73
2022-08-05T14:36:08.473Z,3.70
2022-08-05T14:38:54.192Z,3.70
2022-08-05T14:41:39.396Z,3.40
2022-08-05T14:44:33.714Z,3.40
2022-08-05T14:48:02.797Z,3.30
2022-08-05T14:50:25.331Z,3.43
2022-08-05T14:53:10.864Z,3.37
2022-08-05T14:55:56.263Z,3.30
2022-08-05T14:58:47.896Z,3.20
2022-08-05T15:01:48.114Z,3.27
2022-08-05T15:04:34.873Z,3.00
2022-08-05T15:08:05.540Z,3.00
2022-08-05T15:10:28.845Z,3.00
2022-08-05T15:13:14.392Z,3.13
2022-08-05T15:16:00.061Z,3.50
2022-08-05T15:18:47.214Z,3.30
2022-08-05T15:21:32.583Z,3.13
2022-08-05T15:24:20.908Z,3.40
2022-08-05T15:27:08.917Z,3.27
2022-08-05T15:29:56.766Z,3.40
2022-08-05T15:32:42.332Z,3.70
2022-08-05T15:35:27.852Z,2.80
2022-08-05T15:38:33.877Z,3.40
2022-08-05T15:41:24.558Z,3.20
2022-08-05T15:44:30.370Z,3.40
2022-08-05T15:47:16.150Z,2.87
2022-08-05T15:50:03.620Z,2.57
2022-08-05T15:52:54.535Z,3.20
2022-08-05T15:56:02.839Z,3.40
2022-08-05T15:58:49.986Z,3.67
2022-08-05T16:01:39.479Z,3.37
2022-08-05T16:04:26.044Z,3.47
2022-08-05T16:07:12.227Z,3.40
2022-08-05T16:09:59.124Z,4.43
2022-08-05T16:12:44.682Z,4.23
2022-08-05T16:15:32.270Z,5.20
2022-08-05T16:18:18.732Z,4.37
2022-08-05T16:21:05.659Z,5.67
2022-08-05T16:23:54.651Z,5.20
2022-08-05T16:26:58.670Z,5.13
2022-08-05T16:29:50.779Z,5.35
2022-08-05T16:32:37.030Z,5.10
2022-08-05T16:35:28.130Z,5.50
2022-08-05T16:42:12.372Z,4.70
2022-08-05T16:44:18.393Z,5.40
2022-08-05T16:47:07.014Z,4.50
2022-08-05T16:50:12.933Z,4.27
2022-08-05T16:53:12.015Z,4.00
2022-08-05T16:55:58.146Z,4.37
2022-08-05T16:58:44.430Z,5.20
2022-08-05T17:01:52.528Z,4.70
2022-08-05T17:04:35.192Z,6.23
2022-08-05T17:07:43.759Z,7.70
2022-08-05T17:10:31.522Z,7.87
2022-08-05T17:13:21.301Z,7.30
2022-08-05T17:16:33.559Z,7.90
2022-08-05T17:19:23.368Z,7.30
2022-08-05T17:22:09.729Z,6.70
2022-08-05T17:25:09.701Z,6.47
2022-08-05T17:28:11.070Z,6.53
2022-08-05T17:31:00.956Z,6.33
2022-08-05T17:36:44.225Z,5.57
2022-08-05T17:39:33.992Z,5.43
2022-08-05T17:42:23.693Z,4.67
2022-08-05T17:45:20.927Z,4.60
2022-08-05T17:48:08.107Z,4.67
2022-08-05T17:50:53.911Z,4.40
2022-08-05T17:53:39.869Z,3.80
2022-08-05T17:56:28.444Z,3.97
2022-08-05T17:59:13.998Z,3.60
2022-08-05T18:02:10.745Z,3.38
2022-08-05T18:04:56.256Z,3.63
2022-08-05T18:07:42.447Z,3.37
2022-08-05T18:10:27.674Z,3.63
2022-08-05T18:13:17.396Z,4.17
2022-08-05T18:16:00.633Z,3.80
2022-08-05T18:18:48.059Z,3.30
2022-08-05T18:22:08.589Z,3.43
2022-08-05T18:24:45.175Z,3.83
2022-08-05T18:27:30.644Z,4.20
2022-08-05T18:30:17.520Z,3.80
2022-08-05T18:33:03.666Z,3.67
2022-08-05T18:36:01.031Z,3.43
2022-08-05T18:38:49.686Z,3.60
2022-08-05T18:41:56.462Z,3.63
2022-08-05T18:44:49.317Z,3.47
2022-08-05T18:47:41.502Z,4.10
2022-08-05T18:50:46.803Z,4.00
2022-08-05T18:53:34.708Z,3.60
2022-08-05T18:56:29.283Z,3.67
2022-08-05T18:59:44.437Z,3.60
2022-08-05T19:02:27.828Z,3.80
2022-08-05T19:06:12.227Z,4.20
2022-08-05T19:08:21.490Z,3.93
2022-08-05T19:11:07.488Z,3.83
2022-08-05T19:14:01.814Z,4.30
2022-08-05T19:16:57.156Z,4.50
2022-08-05T19:19:46.862Z,4.33
2022-08-05T19:22:34.253Z,4.37
2022-08-05T19:25:29.853Z,4.23
2022-08-05T19:28:16.531Z,4.60
2022-08-05T19:31:05.767Z,4.43
2022-08-05T19:33:56.284Z,4.37
2022-08-05T19:36:42.612Z,4.33
2022-08-05T19:39:30.311Z,4.50
2022-08-05T19:42:18.619Z,4.50
2022-08-05T19:45:23.203Z,4.43
2022-08-05T19:48:14.434Z,4.60
2022-08-05T19:51:00.318Z,4.67
2022-08-05T19:54:03.549Z,4.60
2022-08-05T19:56:50.688Z,4.47
2022-08-05T20:00:00.606Z,4.43
2022-08-05T20:02:42.909Z,4.00
2022-08-05T20:05:28.264Z,4.40
2022-08-05T20:08:30.463Z,4.17
2022-08-05T20:11:18.007Z,3.87
2022-08-05T20:14:12.665Z,4.10
2022-08-05T20:17:03.469Z,3.53
2022-08-05T20:19:56.608Z,3.80
2022-08-05T20:22:46.741Z,3.70
2022-08-05T20:25:33.885Z,3.63
2022-08-05T20:28:25.472Z,3.55
2022-08-05T20:31:12.943Z,3.17
2022-08-05T20:33:58.437Z,2.90
2022-08-05T20:36:43.901Z,3.27
2022-08-05T20:39:36.576Z,2.80
2022-08-05T20:42:22.467Z,2.85
2022-08-05T20:45:08.183Z,2.90
2022-08-05T20:47:53.443Z,2.70
2022-08-05T20:50:42.446Z,2.43
2022-08-05T20:53:36.864Z,2.35
2022-08-05T20:56:29.815Z,2.33
2022-08-05T20:59:26.247Z,2.37
2022-08-05T21:02:12.522Z,2.33
2022-08-05T21:05:04.207Z,2.17
2022-08-05T21:07:54.785Z,2.67
2022-08-05T21:10:48.468Z,2.40
2022-08-05T21:13:47.463Z,2.50
2022-08-05T21:16:40.088Z,2.00
2022-08-05T21:19:25.438Z,2.40
2022-08-05T21:22:13.719Z,2.50
2022-08-05T21:24:59.985Z,2.20
2022-08-05T21:27:47.679Z,2.47
2022-08-05T21:30:39.038Z,2.20
2022-08-05T21:33:26.705Z,2.30
2022-08-05T21:36:29.801Z,2.10
2022-08-05T21:39:16.992Z,2.00
2022-08-05T21:42:19.823Z,2.20
2022-08-05T21:45:24.612Z,2.00
2022-08-05T21:48:23.059Z,2.03
2022-08-05T21:52:16.503Z,1.97
2022-08-05T21:54:14.989Z,1.83
2022-08-05T21:57:30.954Z,2.00
2022-08-05T22:00:11.404Z,1.80
2022-08-05T22:03:00.486Z,1.60
2022-08-05T22:05:49.199Z,1.40
2022-08-05T22:08:34.772Z,1.80
2022-08-05T22:11:35.085Z,1.80
2022-08-05T22:14:35.515Z,1.70
2022-08-05T22:17:23.389Z,1.43
2022-08-05T22:20:14.886Z,1.57
2022-08-05T22:23:21.598Z,1.50
2022-08-05T22:26:25.862Z,1.70
2022-08-05T22:29:12.171Z,1.43
2022-08-05T22:32:03.346Z,1.40
2022-08-05T22:34:48.986Z,1.40
2022-08-05T22:37:58.806Z,1.30
2022-08-05T22:40:40.429Z,1.17
2022-08-05T22:43:36.580Z,1.33
2022-08-05T22:46:23.599Z,1.40
2022-08-05T22:50:17.948Z,1.50
2022-08-05T22:52:22.856Z,1.57
2022-08-05T22:55:21.457Z,1.13
2022-08-05T22:58:07.172Z,1.10
2022-08-05T23:00:57.189Z,1.13
2022-08-05T23:03:58.950Z,1.10
2022-08-05T23:06:45.473Z,1.17
2022-08-05T23:09:53.345Z,1.30
2022-08-05T23:12:40.585Z,1.77
2022-08-05T23:15:34.792Z,1.20
2022-08-05T23:18:21.167Z,1.10
2022-08-05T23:21:10.052Z,1.03
2022-08-05T23:23:55.834Z,1.20
2022-08-05T23:26:41.013Z,1.40
2022-08-05T23:29:29.302Z,1.17
2022-08-05T23:32:22.491Z,1.10
2022-08-05T23:35:09.009Z,1.30
2022-08-05T23:37:54.322Z,1.00
2022-08-05T23:40:40.581Z,1.10
2022-08-05T23:44:04.982Z,1.30
2022-08-05T23:46:33.324Z,1.20
2022-08-05T23:49:33.899Z,1.03
2022-08-05T23:52:29.354Z,1.13
2022-08-05T23:55:16.053Z,1.20
2022-08-05T23:58:02.825Z,1.20
